createdAt,value
2019-04-22T00:11:48.517Z,51.19
2019-04-22T00:14:06.323Z,51.16
2019-04-22T00:16:53.271Z,51.24
2019-04-22T00:22:07.769Z,51.43
2019-04-22T00:24:38.964Z,51.59
2019-04-22T00:27:26.137Z,52.01
2019-04-22T00:32:30.338Z,52.11
2019-04-22T00:35:03.901Z,52.49
2019-04-22T00:51:01.363Z,52.94
2019-04-22T01:04:36.475Z,53.76
2019-04-22T01:07:09.260Z,53.17
2019-04-22T01:21:21.482Z,53.85
2019-04-22T01:23:34.517Z,53.94
2019-04-22T01:37:37.298Z,54.06
2019-04-22T01:40:21.441Z,54.80
2019-04-22T02:04:52.407Z,54.35
2019-04-22T02:07:26.262Z,54.67
2019-04-22T02:20:39.630Z,54.53
2019-04-22T02:28:41.102Z,55.02
2019-04-22T02:31:25.866Z,55.43
2019-04-22T02:36:22.490Z,55.88
2019-04-22T02:49:29.151Z,55.97
2019-04-22T02:52:06.339Z,56.26
2019-04-22T03:37:20.620Z,56.40
2019-04-22T03:53:15.011Z,54.95
2019-04-22T03:55:45.040Z,53.92
2019-04-22T04:09:50.024Z,52.52
2019-04-22T04:12:26.030Z,52.18
2019-04-22T04:26:05.153Z,50.70
2019-04-22T04:45:11.005Z,47.38
2019-04-22T04:50:06.990Z,47.30
2019-04-22T04:52:50.903Z,46.57
2019-04-22T05:11:58.318Z,41.93
2019-04-22T05:24:44.316Z,40.80
2019-04-22T05:27:31.449Z,38.91
2019-04-22T05:30:21.230Z,39.22
2019-04-22T05:32:30.711Z,39.02
2019-04-22T05:46:20.616Z,38.96
2019-04-22T05:48:54.218Z,38.82
2019-04-22T05:51:31.514Z,39.47
2019-04-22T05:54:12.418Z,38.16
2019-04-22T06:08:04.203Z,35.84
2019-04-22T06:10:46.610Z,34.43
2019-04-22T06:24:23.276Z,32.55
2019-04-22T06:29:26.643Z,30.52
2019-04-22T06:43:10.320Z,28.90
2019-04-22T06:45:35.047Z,29.86
2019-04-22T06:54:01.712Z,27.50
2019-04-22T06:56:35.810Z,27.07
2019-04-22T07:05:35.605Z,26.03
2019-04-22T07:08:16.046Z,24.49
2019-04-22T07:10:42.022Z,24.82
2019-04-22T07:13:23.569Z,24.74
2019-04-22T07:20:56.402Z,26.13
2019-04-22T07:23:34.835Z,27.48
2019-04-22T07:26:08.597Z,25.93
2019-04-22T07:28:42.254Z,25.26
2019-04-22T07:31:17.368Z,24.85
2019-04-22T07:33:51.742Z,24.80
2019-04-22T07:38:56.475Z,24.94
2019-04-22T07:41:34.450Z,24.76
2019-04-22T07:44:13.854Z,24.82
2019-04-22T07:46:43.171Z,24.78
2019-04-22T07:49:18.351Z,24.36
2019-04-22T07:52:03.324Z,24.43
2019-04-22T07:54:29.209Z,23.71
2019-04-22T07:57:12.134Z,23.97
2019-04-22T07:59:40.868Z,24.12
2019-04-22T08:02:15.781Z,23.20
2019-04-22T08:07:29.976Z,22.39
2019-04-22T08:10:12.515Z,22.31
2019-04-22T08:15:05.781Z,22.08
2019-04-22T08:20:19.281Z,21.33
2019-04-22T08:23:01.133Z,21.31
2019-04-22T08:25:27.170Z,21.55
2019-04-22T08:28:05.427Z,21.17
2019-04-22T08:30:41.162Z,20.99
2019-04-22T08:33:16.067Z,21.55
2019-04-22T08:36:00.077Z,20.79
2019-04-22T08:41:20.860Z,20.30
2019-04-22T08:44:02.433Z,20.06
2019-04-22T08:51:30.877Z,19.01
2019-04-22T08:54:06.137Z,19.02
2019-04-22T08:56:56.880Z,19.69
2019-04-22T08:59:12.543Z,18.94
2019-04-22T09:01:45.353Z,18.27
2019-04-22T09:04:16.263Z,18.92
2019-04-22T09:07:07.667Z,18.71
2019-04-22T09:21:12.212Z,18.03
2019-04-22T09:23:33.923Z,17.48
2019-04-22T09:39:19.518Z,19.29
2019-04-22T09:41:46.548Z,19.18
2019-04-22T09:44:23.090Z,18.51
2019-04-22T09:47:00.344Z,17.27
2019-04-22T10:00:25.363Z,14.92
2019-04-22T10:17:03.264Z,14.22
2019-04-22T10:19:30.031Z,13.05
2019-04-22T10:22:14.964Z,14.06
2019-04-22T10:24:45.103Z,14.64
2019-04-22T10:27:24.361Z,13.82
2019-04-22T10:30:02.798Z,13.68
2019-04-22T10:32:25.540Z,14.05
2019-04-22T10:34:47.695Z,13.84
2019-04-22T10:37:17.066Z,13.21
2019-04-22T10:39:55.126Z,13.82
2019-04-22T10:42:23.064Z,13.46
2019-04-22T10:51:34.886Z,13.03
2019-04-22T10:54:07.284Z,12.37
2019-04-22T11:07:19.394Z,11.37
2019-04-22T11:09:58.969Z,10.80
2019-04-22T11:23:50.396Z,10.30
2019-04-22T11:26:23.950Z,10.26
2019-04-22T11:40:25.429Z,9.95
2019-04-22T11:42:52.224Z,8.89
2019-04-22T11:45:29.273Z,9.34
2019-04-22T11:48:01.403Z,9.11
2019-04-22T11:50:40.038Z,9.96
2019-04-22T11:53:10.968Z,10.94
2019-04-22T12:07:12.844Z,10.57
2019-04-22T12:09:45.837Z,10.95
2019-04-22T12:12:23.630Z,10.24
2019-04-22T12:14:56.362Z,9.37
2019-04-22T12:17:36.058Z,9.23
2019-04-22T12:20:12.544Z,9.61
2019-04-22T12:22:54.949Z,8.83
2019-04-22T12:29:15.380Z,8.60
2019-04-22T12:31:47.567Z,8.02
2019-04-22T12:34:25.754Z,8.55
2019-04-22T12:36:58.398Z,9.42
2019-04-22T12:46:52.266Z,14.75
2019-04-22T13:18:06.087Z,9.08
2019-04-22T13:20:30.445Z,9.95
2019-04-22T13:23:04.028Z,11.76
2019-04-22T13:25:34.854Z,12.99
2019-04-22T13:28:09.238Z,11.92
2019-04-22T13:30:40.903Z,10.97
2019-04-22T13:33:16.810Z,12.19
2019-04-22T13:35:50.067Z,13.32
2019-04-22T13:38:22.771Z,11.37
2019-04-22T13:41:09.816Z,10.22
2019-04-22T13:43:31.229Z,9.25
2019-04-22T13:46:06.034Z,9.29
2019-04-22T13:48:59.083Z,11.34
2019-04-22T13:51:45.069Z,13.58
2019-04-22T13:54:40.441Z,14.26
2019-04-22T13:56:37.349Z,14.98
2019-04-22T13:58:58.490Z,15.40
2019-04-22T14:01:25.549Z,15.79
2019-04-22T14:04:00.801Z,14.93
2019-04-22T14:06:32.861Z,12.25
2019-04-22T14:09:07.656Z,11.14
2019-04-22T14:11:46.167Z,10.00
2019-04-22T14:14:12.617Z,9.07
2019-04-22T14:16:46.902Z,9.27
2019-04-22T14:19:18.393Z,10.15
2019-04-22T14:21:49.736Z,10.21
2019-04-22T14:24:23.716Z,10.05
2019-04-22T14:27:13.577Z,11.34
2019-04-22T14:29:29.329Z,12.18
2019-04-22T14:34:34.260Z,10.86
2019-04-22T14:37:05.769Z,12.41
2019-04-22T14:39:37.966Z,13.24
2019-04-22T14:42:28.458Z,15.00
2019-04-22T14:44:03.788Z,11.16
2019-04-22T14:45:20.539Z,15.91
2019-04-22T14:47:45.536Z,16.91
2019-04-22T14:50:16.076Z,17.24
2019-04-22T14:52:46.238Z,17.99
2019-04-22T14:55:06.073Z,17.52
2019-04-22T14:57:32.306Z,19.13
2019-04-22T15:00:06.139Z,17.79
2019-04-22T15:02:39.419Z,18.56
2019-04-22T15:05:12.243Z,18.03
2019-04-22T15:07:44.406Z,17.75
2019-04-22T15:10:15.999Z,17.93
2019-04-22T15:12:51.377Z,18.31
2019-04-22T15:15:40.554Z,17.11
2019-04-22T15:18:11.597Z,17.99
2019-04-22T15:20:47.464Z,16.52
2019-04-22T15:23:16.849Z,15.66
2019-04-22T15:25:48.392Z,15.59
2019-04-22T15:28:19.643Z,15.86
2019-04-22T15:30:51.197Z,15.82
2019-04-22T15:33:25.609Z,15.08
2019-04-22T15:35:56.463Z,15.86
2019-04-22T15:38:28.259Z,16.79
2019-04-22T15:41:00.749Z,17.10
2019-04-22T15:43:35.113Z,16.81
2019-04-22T15:46:05.698Z,17.13
2019-04-22T15:48:37.703Z,16.53
2019-04-22T15:51:10.938Z,16.16
2019-04-22T15:53:43.044Z,16.20
2019-04-22T15:56:14.742Z,15.98
2019-04-22T15:58:46.064Z,16.03
2019-04-22T16:01:25.196Z,16.30
2019-04-22T16:03:50.595Z,16.59
2019-04-22T16:06:23.999Z,17.15
2019-04-22T16:08:59.958Z,17.83
2019-04-22T16:11:31.798Z,18.23
2019-04-22T16:14:04.311Z,18.66
2019-04-22T16:16:37.202Z,19.17
2019-04-22T16:19:09.531Z,19.47
2019-04-22T16:21:49.034Z,20.01
2019-04-22T16:24:27.917Z,20.37
2019-04-22T16:27:04.697Z,20.04
2019-04-22T16:29:37.201Z,20.55
2019-04-22T16:32:09.470Z,21.48
2019-04-22T16:34:40.297Z,21.26
2019-04-22T16:37:14.639Z,21.74
2019-04-22T16:39:48.453Z,21.68
2019-04-22T16:42:28.956Z,21.89
2019-04-22T16:44:51.306Z,22.16
2019-04-22T16:47:23.663Z,22.24
2019-04-22T16:49:55.330Z,22.24
2019-04-22T16:52:28.066Z,22.30
2019-04-22T16:55:01.089Z,22.88
2019-04-22T16:57:33.604Z,22.58
2019-04-22T17:00:11.168Z,22.68
2019-04-22T17:02:51.831Z,22.99
2019-04-22T17:05:41.478Z,23.17
2019-04-22T17:08:14.263Z,23.27
2019-04-22T17:10:46.050Z,23.90
2019-04-22T17:13:24.488Z,23.87
2019-04-22T17:15:52.017Z,24.15
2019-04-22T17:18:23.274Z,24.41
2019-04-22T17:20:55.782Z,24.58
2019-04-22T17:23:29.673Z,24.70
2019-04-22T17:26:03.239Z,24.60
2019-04-22T17:28:35.547Z,24.81
2019-04-22T17:31:06.716Z,25.52
2019-04-22T17:33:39.389Z,25.38
2019-04-22T17:36:12.009Z,25.22
2019-04-22T17:38:50.898Z,25.97
2019-04-22T17:41:24.314Z,26.05
2019-04-22T17:44:16.855Z,25.85
2019-04-22T17:46:35.942Z,26.29
2019-04-22T17:49:21.900Z,26.36
2019-04-22T17:52:17.669Z,26.41
2019-04-22T17:54:49.672Z,26.67
2019-04-22T17:57:21.577Z,27.21
2019-04-22T17:59:51.776Z,27.21
2019-04-22T18:02:25.214Z,27.71
2019-04-22T18:04:46.776Z,27.84
2019-04-22T18:15:11.449Z,29.47
2019-04-22T18:17:44.993Z,30.04
2019-04-22T18:20:13.131Z,30.12
2019-04-22T18:22:38.208Z,30.52
2019-04-22T18:25:11.404Z,31.15
2019-04-22T18:28:00.943Z,31.49
2019-04-22T18:30:20.464Z,31.75
2019-04-22T18:33:00.297Z,32.16
2019-04-22T18:35:32.361Z,32.63
2019-04-22T18:38:09.232Z,33.17
2019-04-22T18:40:38.499Z,33.38
2019-04-22T18:43:17.175Z,33.37
2019-04-22T18:45:54.619Z,33.69
2019-04-22T18:48:08.746Z,33.48
2019-04-22T18:50:58.158Z,33.34
2019-04-22T18:53:44.808Z,34.27
2019-04-22T18:56:13.919Z,34.60
2019-04-22T18:58:34.360Z,34.83
2019-04-22T19:00:53.331Z,35.23
2019-04-22T19:03:30.026Z,35.13
2019-04-22T19:06:29.170Z,35.39
2019-04-22T19:08:59.119Z,36.44
2019-04-22T19:11:32.035Z,37.05
2019-04-22T19:14:05.985Z,37.05
2019-04-22T19:16:36.167Z,37.16
2019-04-22T19:21:37.696Z,37.58
2019-04-22T19:24:04.367Z,37.28
2019-04-22T19:26:50.070Z,37.13
2019-04-22T19:29:20.386Z,37.04
2019-04-22T19:31:52.337Z,37.79
2019-04-22T19:34:20.414Z,38.18
2019-04-22T19:36:54.455Z,38.04
2019-04-22T19:39:22.569Z,38.30
2019-04-22T19:42:00.914Z,38.31
2019-04-22T19:44:36.255Z,38.38
2019-04-22T19:49:48.111Z,38.50
2019-04-22T19:52:18.903Z,37.96
2019-04-22T19:54:46.746Z,39.31
2019-04-22T19:57:11.591Z,39.58
2019-04-22T19:59:45.225Z,39.78
2019-04-22T20:02:31.530Z,40.17
2019-04-22T20:05:26.158Z,40.40
2019-04-22T20:07:48.680Z,40.50
2019-04-22T20:10:25.140Z,40.81
2019-04-22T20:12:58.385Z,41.08
2019-04-22T20:15:26.931Z,41.09
2019-04-22T20:18:21.797Z,41.09
2019-04-22T20:20:40.954Z,41.27
2019-04-22T20:23:10.432Z,41.07
2019-04-22T20:25:46.369Z,41.13
2019-04-22T20:28:29.106Z,41.53
2019-04-22T20:30:55.069Z,41.85
2019-04-22T20:33:29.507Z,42.06
2019-04-22T20:36:03.390Z,42.12
2019-04-22T20:38:38.871Z,42.34
2019-04-22T20:41:10.496Z,42.34
2019-04-22T20:43:50.238Z,42.24
2019-04-22T20:46:19.205Z,42.24
2019-04-22T20:48:55.006Z,42.45
2019-04-22T20:51:24.414Z,42.76
2019-04-22T20:54:02.676Z,42.89
2019-04-22T20:56:25.169Z,42.93
2019-04-22T20:59:02.073Z,43.27
2019-04-22T21:01:39.206Z,43.69
2019-04-22T21:03:57.608Z,43.95
2019-04-22T21:06:42.292Z,43.96
2019-04-22T21:09:18.504Z,44.17
2019-04-22T21:11:48.388Z,44.67
2019-04-22T21:14:21.615Z,44.74
2019-04-22T21:17:07.638Z,45.01
2019-04-22T21:19:47.656Z,45.05
2019-04-22T21:22:18.102Z,45.09
2019-04-22T21:24:47.468Z,45.18
2019-04-22T21:27:20.989Z,45.63
2019-04-22T21:29:49.232Z,46.58
2019-04-22T21:32:31.396Z,48.15
2019-04-22T21:35:21.582Z,48.19
2019-04-22T21:37:39.843Z,48.41
2019-04-22T21:39:58.603Z,47.29
2019-04-22T21:42:41.744Z,46.37
2019-04-22T21:45:07.235Z,46.53
2019-04-22T21:47:49.972Z,46.50
2019-04-22T21:50:35.698Z,46.78
2019-04-22T21:53:00.671Z,47.02
2019-04-22T21:55:32.912Z,47.07
2019-04-22T21:58:07.996Z,46.97
2019-04-22T22:03:17.775Z,47.54
2019-04-22T22:05:39.173Z,47.93
2019-04-22T22:08:30.182Z,49.45
2019-04-22T22:10:53.532Z,49.78
2019-04-22T22:13:30.689Z,49.52
2019-04-22T22:15:59.270Z,48.69
2019-04-22T22:18:29.054Z,48.16
2019-04-22T22:21:25.295Z,47.91
2019-04-22T22:23:43.642Z,48.19
2019-04-22T22:26:06.830Z,48.50
2019-04-22T22:31:31.830Z,50.83
2019-04-22T22:33:54.187Z,50.79
2019-04-22T22:36:27.141Z,51.18
2019-04-22T22:39:00.327Z,51.39
2019-04-22T22:41:14.339Z,51.31
2019-04-22T22:43:50.531Z,50.95
2019-04-22T22:46:31.925Z,50.32
2019-04-22T22:49:18.348Z,50.00
2019-04-22T22:52:13.243Z,51.52
2019-04-22T22:54:24.014Z,52.20
2019-04-22T22:57:00.376Z,52.61
2019-04-22T22:59:33.113Z,52.64
2019-04-22T23:02:03.182Z,52.41
2019-04-22T23:04:39.842Z,50.89
2019-04-22T23:07:17.693Z,50.74
2019-04-22T23:09:45.786Z,50.64
2019-04-22T23:12:30.680Z,50.30
2019-04-22T23:14:50.027Z,49.98
2019-04-22T23:17:07.715Z,49.82
2019-04-22T23:19:40.452Z,50.13
2019-04-22T23:22:20.469Z,49.93
2019-04-22T23:24:54.452Z,49.97
2019-04-22T23:27:47.691Z,49.69
2019-04-22T23:30:18.428Z,49.65
2019-04-22T23:32:59.254Z,50.14
2019-04-22T23:35:33.605Z,49.76
2019-04-22T23:38:09.214Z,49.78
2019-04-22T23:40:44.355Z,49.50
2019-04-22T23:43:24.181Z,49.48
2019-04-22T23:45:53.321Z,49.69
2019-04-22T23:48:19.188Z,49.38
2019-04-22T23:50:55.831Z,49.33
2019-04-22T23:53:57.337Z,49.64
2019-04-22T23:56:16.906Z,49.64
2019-04-22T23:58:52.675Z,49.58
